< < Back
Terminal Aerodrome Forecast


Current Version              Previous Versions:   1  2  3  4  5  6  7  8  9  

Terminal Aerodrome Forecast

123
FTUS42 KCAE 240800 AAA
TAFCAE
TAF AMD
KCAE 240849Z 2409/2506 VRB04KT P6SM SCT040
     FM241300 25007KT P6SM SCT040 BKN150
     FM241500 25011G18KT P6SM SCT035 BKN150
     FM241700 26012G20KT P6SM VCSH SCT045 BKN100
     FM250000 27007KT P6SM SCT040 BKN080=



Latest METAR

440
SAUS80 KWBC 241700 CCA
MTRCAE
METAR KCAE 241656Z 23013G20KT 10SM SCT047 34/20 A2992 RMK AO2 SLP128
T03440200


USA.gov is the U.S. government's official web portal to all federal, state and local government web resources and services.